Boulder Creek, CA

2:33 AM PDT on September 15, 2014 (GMT -0700)
Cresta Vista | Change Station
CLOSE
Current Station
Personal Weather Station
Location: Boulder Creek, CA
Elevation: 695 ft
Nearby Weather Stations

Elev 695 ft 37.14 °N, 122.13 °W | Updated 8 seconds ago

Partly Cloudy
Partly Cloudy
57.9 °F
Feels Like 57.9 °F
N
0.0
Wind Variable Wind from ESE
Gusts 0.0 mph

Today
High -- | Low -- °F
--% Chance of Precip.
Yesterday
High -- | Low -- °F
Precip. -- in
6:50 AM 7:15 PM
Waning Gibbous, 57% visible
Pressure 29.85 in
Visibility 10.0 miles
Clouds Clear
Dew Point 51 °F
Humidity 78%
Rainfall 0.00 in
Snow Depth 0 in , 0 in , 0 in
UV 0.0 out of 12
Pollen 6.20 out of 12
Ozone Good
PM2.5 Good
Flu Activity Not available.
METAR KSJC 150853Z AUTO 30004KT 10SM CLR 17/14 A2985 RMK AO2 SLP108 T01670144 51006

More Conditions Fewer Conditions

Pressure 29.85 in
Visibility 10.0 miles
Clouds Clear
Dew Point 51 °F
Humidity 78%
Rainfall 0.00 in
Snow Depth 0 in , 0 in , 0 in
UV 0.0 out of 12
Pollen 6.20 out of 12
Ozone Good
PM2.5 Good
Flu Activity Not available.
METAR KSJC 150853Z AUTO 30004KT 10SM CLR 17/14 A2985 RMK AO2 SLP108 T01670144 51006

More Conditions Fewer Conditions

10-Day Weather Forecast

Almanac

Astronomy

Sep. 15, 2014 Rise Set
Actual Time 6:50 AM PDT 7:15 PM PDT
Civil Twilight 6:24 AM PDT 7:42 PM PDT
Nautical Twilight 5:53 AM PDT 8:12 PM PDT
Astronomical Twilight 5:22 AM PDT 8:43 PM PDT
Moon No Moon Rise 1:47 PM PDT
Length of Visible Light 13h 17m
Length of Day
12h 25m
Tomorrow will be 2m 21s shorter.
Waning Gibbous, 57% of the Moon is Illuminated
Today
Waning Gibbous
Sep 15
Last Quarter
Sep 24
New
Oct 1
First Quarter
Oct 8
Full

Today's Extremes

State Highs State Lows

Community

WunderPhotos

Upload Photos

1,753,426 photos uploaded!

Nearby

Air Quality

  Air Quality AQ Index Pollutant
Yesterday Good
PM2.5
Yesterday Good
OZONE
Current Good
PM2.5
Current Good
OZONE
Monday Good
OZONE
Tuesday Good
OZONE
Wednesday Good
OZONE
Thursday Good
OZONE
Friday Good
OZONE

Snow Depth

Station Depth Elevation
Echo Peak 0 in 7800 ft
Hagan's Meadow 0 in 8000 ft
Sonora Pass 0 in 8800 ft
Tahoe City Cross 0 in 6750 ft
Summit Meadow 0 in 9122 ft

Earthquake Activity

City Distance Mag. Time & Date
Cobb, California 121 miles 2.8 11:07 AM PDT
2014-09-14
Ridgemark, California 56 miles 2.6 12:44 PM PDT
2014-09-12
Minimum magnitude displayed is 2.5.

Coastal Water Temperatures

Place Temperature
Monterey, CA 62.1 °F
Redwood City, CA 72.0 °F

Nearby Weather Stations